sensor_id;sensor_type;location;lat;lon;timestamp;P1;durP1;ratioP1;P2;durP2;ratioP2
77226;SDS011;66234;47.642;19.144;2023-09-18T00:01:01;13.70;;;9.77;;
77226;SDS011;66234;47.642;19.144;2023-09-18T00:04:04;15.27;;;10.17;;
77226;SDS011;66234;47.642;19.144;2023-09-18T00:07:07;16.23;;;9.30;;
77226;SDS011;66234;47.642;19.144;2023-09-18T00:10:10;14.38;;;9.65;;
77226;SDS011;66234;47.642;19.144;2023-09-18T00:13:13;12.32;;;9.60;;
77226;SDS011;66234;47.642;19.144;2023-09-18T00:16:16;12.67;;;9.10;;
77226;SDS011;66234;47.642;19.144;2023-09-18T00:19:19;12.57;;;8.80;;
77226;SDS011;66234;47.642;19.144;2023-09-18T00:22:21;14.77;;;9.07;;
77226;SDS011;66234;47.642;19.144;2023-09-18T00:25:26;13.05;;;9.15;;
77226;SDS011;66234;47.642;19.144;2023-09-18T00:28:29;13.15;;;8.80;;
77226;SDS011;66234;47.642;19.144;2023-09-18T00:31:31;11.23;;;8.47;;
77226;SDS011;66234;47.642;19.144;2023-09-18T00:34:34;14.37;;;9.03;;
77226;SDS011;66234;47.642;19.144;2023-09-18T00:37:36;13.45;;;9.00;;
77226;SDS011;66234;47.642;19.144;2023-09-18T00:40:41;11.63;;;8.25;;
77226;SDS011;66234;47.642;19.144;2023-09-18T00:43:44;12.00;;;8.65;;
77226;SDS011;66234;47.642;19.144;2023-09-18T00:46:46;15.03;;;8.23;;
77226;SDS011;66234;47.642;19.144;2023-09-18T00:49:49;13.13;;;8.20;;
77226;SDS011;66234;47.642;19.144;2023-09-18T00:52:55;12.43;;;8.63;;
77226;SDS011;66234;47.642;19.144;2023-09-18T00:55:58;12.80;;;8.68;;
77226;SDS011;66234;47.642;19.144;2023-09-18T00:59:02;12.00;;;8.40;;
77226;SDS011;66234;47.642;19.144;2023-09-18T01:02:06;12.47;;;8.40;;
77226;SDS011;66234;47.642;19.144;2023-09-18T01:05:08;11.87;;;7.93;;
77226;SDS011;66234;47.642;19.144;2023-09-18T01:08:11;12.32;;;8.95;;
77226;SDS011;66234;47.642;19.144;2023-09-18T01:11:20;10.73;;;8.07;;
77226;SDS011;66234;47.642;19.144;2023-09-18T01:17:50;11.90;;;8.37;;
77226;SDS011;66234;47.642;19.144;2023-09-18T01:20:53;14.67;;;7.90;;
77226;SDS011;66234;47.642;19.144;2023-09-18T01:23:56;13.30;;;8.68;;
77226;SDS011;66234;47.642;19.144;2023-09-18T01:26:59;13.05;;;8.90;;
77226;SDS011;66234;47.642;19.144;2023-09-18T01:30:02;15.23;;;8.63;;
77226;SDS011;66234;47.642;19.144;2023-09-18T01:33:04;13.37;;;8.40;;
77226;SDS011;66234;47.642;19.144;2023-09-18T01:36:08;12.23;;;9.20;;
77226;SDS011;66234;47.642;19.144;2023-09-18T01:39:11;12.10;;;8.65;;
77226;SDS011;66234;47.642;19.144;2023-09-18T01:42:14;13.25;;;8.52;;
77226;SDS011;66234;47.642;19.144;2023-09-18T01:45:17;12.45;;;8.38;;
77226;SDS011;66234;47.642;19.144;2023-09-18T01:48:20;12.43;;;8.17;;
77226;SDS011;66234;47.642;19.144;2023-09-18T01:51:22;12.80;;;8.33;;
77226;SDS011;66234;47.642;19.144;2023-09-18T01:54:25;13.75;;;8.93;;
77226;SDS011;66234;47.642;19.144;2023-09-18T01:57:28;13.25;;;9.02;;
77226;SDS011;66234;47.642;19.144;2023-09-18T02:00:31;11.82;;;8.65;;
77226;SDS011;66234;47.642;19.144;2023-09-18T02:03:34;13.70;;;8.33;;
77226;SDS011;66234;47.642;19.144;2023-09-18T02:06:57;13.47;;;8.50;;
77226;SDS011;66234;47.642;19.144;2023-09-18T02:10:00;16.40;;;8.45;;
77226;SDS011;66234;47.642;19.144;2023-09-18T02:13:03;10.38;;;8.63;;
77226;SDS011;66234;47.642;19.144;2023-09-18T02:16:06;14.35;;;8.98;;
77226;SDS011;66234;47.642;19.144;2023-09-18T02:19:10;9.87;;;8.00;;
77226;SDS011;66234;47.642;19.144;2023-09-18T02:22:13;14.03;;;8.67;;
77226;SDS011;66234;47.642;19.144;2023-09-18T02:25:17;13.15;;;8.68;;
77226;SDS011;66234;47.642;19.144;2023-09-18T02:28:19;12.80;;;9.00;;
77226;SDS011;66234;47.642;19.144;2023-09-18T02:31:22;13.73;;;8.57;;
77226;SDS011;66234;47.642;19.144;2023-09-18T02:34:25;11.53;;;8.63;;
77226;SDS011;66234;47.642;19.144;2023-09-18T02:37:27;12.20;;;8.53;;
77226;SDS011;66234;47.642;19.144;2023-09-18T02:40:31;10.00;;;7.50;;
77226;SDS011;66234;47.642;19.144;2023-09-18T02:43:34;13.13;;;8.82;;
77226;SDS011;66234;47.642;19.144;2023-09-18T02:46:37;13.57;;;8.98;;
77226;SDS011;66234;47.642;19.144;2023-09-18T02:49:39;15.13;;;9.20;;
77226;SDS011;66234;47.642;19.144;2023-09-18T02:52:43;10.97;;;7.80;;
77226;SDS011;66234;47.642;19.144;2023-09-18T02:55:46;12.18;;;8.82;;
77226;SDS011;66234;47.642;19.144;2023-09-18T02:58:50;13.15;;;9.07;;
77226;SDS011;66234;47.642;19.144;2023-09-18T03:01:53;14.25;;;9.45;;
77226;SDS011;66234;47.642;19.144;2023-09-18T03:04:56;13.23;;;8.13;;
77226;SDS011;66234;47.642;19.144;2023-09-18T03:07:59;10.27;;;7.83;;
77226;SDS011;66234;47.642;19.144;2023-09-18T03:11:01;11.15;;;8.00;;
77226;SDS011;66234;47.642;19.144;2023-09-18T03:14:05;13.73;;;9.18;;
77226;SDS011;66234;47.642;19.144;2023-09-18T03:17:08;13.48;;;8.45;;
77226;SDS011;66234;47.642;19.144;2023-09-18T03:20:11;14.97;;;9.30;;
77226;SDS011;66234;47.642;19.144;2023-09-18T03:23:13;12.33;;;8.37;;
77226;SDS011;66234;47.642;19.144;2023-09-18T03:26:16;14.25;;;8.55;;
77226;SDS011;66234;47.642;19.144;2023-09-18T03:29:19;15.20;;;9.13;;
77226;SDS011;66234;47.642;19.144;2023-09-18T03:32:22;13.93;;;8.65;;
77226;SDS011;66234;47.642;19.144;2023-09-18T03:35:24;13.37;;;8.40;;
77226;SDS011;66234;47.642;19.144;2023-09-18T03:38:28;11.87;;;8.67;;
77226;SDS011;66234;47.642;19.144;2023-09-18T03:41:32;13.73;;;8.63;;
77226;SDS011;66234;47.642;19.144;2023-09-18T03:44:37;13.73;;;9.15;;
77226;SDS011;66234;47.642;19.144;2023-09-18T03:47:40;14.98;;;9.30;;
77226;SDS011;66234;47.642;19.144;2023-09-18T03:50:44;12.23;;;8.50;;
77226;SDS011;66234;47.642;19.144;2023-09-18T03:53:46;13.10;;;8.73;;
77226;SDS011;66234;47.642;19.144;2023-09-18T03:56:50;13.75;;;8.60;;
77226;SDS011;66234;47.642;19.144;2023-09-18T03:59:52;13.82;;;8.45;;
77226;SDS011;66234;47.642;19.144;2023-09-18T04:02:55;12.52;;;9.20;;
77226;SDS011;66234;47.642;19.144;2023-09-18T04:05:58;15.50;;;8.23;;
77226;SDS011;66234;47.642;19.144;2023-09-18T04:09:00;14.90;;;8.70;;
77226;SDS011;66234;47.642;19.144;2023-09-18T04:12:03;15.38;;;8.15;;
77226;SDS011;66234;47.642;19.144;2023-09-18T04:15:09;11.77;;;9.15;;
77226;SDS011;66234;47.642;19.144;2023-09-18T04:18:11;13.27;;;8.98;;
77226;SDS011;66234;47.642;19.144;2023-09-18T04:21:14;12.77;;;8.87;;
77226;SDS011;66234;47.642;19.144;2023-09-18T04:24:17;15.23;;;9.67;;
77226;SDS011;66234;47.642;19.144;2023-09-18T04:27:19;14.65;;;10.05;;
77226;SDS011;66234;47.642;19.144;2023-09-18T04:30:22;16.88;;;9.85;;
77226;SDS011;66234;47.642;19.144;2023-09-18T04:33:25;16.50;;;9.52;;
77226;SDS011;66234;47.642;19.144;2023-09-18T04:36:28;13.53;;;9.53;;
77226;SDS011;66234;47.642;19.144;2023-09-18T04:39:31;14.00;;;9.77;;
77226;SDS011;66234;47.642;19.144;2023-09-18T04:42:36;19.75;;;10.35;;
77226;SDS011;66234;47.642;19.144;2023-09-18T04:45:40;15.93;;;10.20;;
77226;SDS011;66234;47.642;19.144;2023-09-18T04:48:42;18.23;;;10.35;;
77226;SDS011;66234;47.642;19.144;2023-09-18T04:51:45;18.63;;;11.30;;
77226;SDS011;66234;47.642;19.144;2023-09-18T04:54:48;17.60;;;11.13;;
77226;SDS011;66234;47.642;19.144;2023-09-18T04:57:50;14.27;;;10.00;;
77226;SDS011;66234;47.642;19.144;2023-09-18T05:00:53;15.90;;;10.63;;
77226;SDS011;66234;47.642;19.144;2023-09-18T05:04:00;15.25;;;10.60;;
77226;SDS011;66234;47.642;19.144;2023-09-18T05:07:03;18.93;;;11.30;;
77226;SDS011;66234;47.642;19.144;2023-09-18T05:10:07;20.23;;;11.53;;
77226;SDS011;66234;47.642;19.144;2023-09-18T05:13:10;18.20;;;11.70;;
77226;SDS011;66234;47.642;19.144;2023-09-18T05:16:14;16.98;;;11.05;;
77226;SDS011;66234;47.642;19.144;2023-09-18T05:19:16;19.30;;;11.70;;
77226;SDS011;66234;47.642;19.144;2023-09-18T05:22:19;18.47;;;11.17;;
77226;SDS011;66234;47.642;19.144;2023-09-18T05:25:22;15.67;;;10.23;;
77226;SDS011;66234;47.642;19.144;2023-09-18T05:28:27;17.27;;;11.60;;
77226;SDS011;66234;47.642;19.144;2023-09-18T05:31:30;14.52;;;9.68;;
77226;SDS011;66234;47.642;19.144;2023-09-18T05:34:32;18.33;;;10.35;;
77226;SDS011;66234;47.642;19.144;2023-09-18T05:37:36;14.70;;;9.93;;
77226;SDS011;66234;47.642;19.144;2023-09-18T05:40:41;19.57;;;10.73;;
77226;SDS011;66234;47.642;19.144;2023-09-18T05:43:43;16.92;;;10.20;;
77226;SDS011;66234;47.642;19.144;2023-09-18T05:46:46;15.90;;;10.55;;
77226;SDS011;66234;47.642;19.144;2023-09-18T05:49:49;17.65;;;10.25;;
77226;SDS011;66234;47.642;19.144;2023-09-18T05:52:51;15.17;;;9.63;;
77226;SDS011;66234;47.642;19.144;2023-09-18T05:55:54;14.87;;;10.33;;
77226;SDS011;66234;47.642;19.144;2023-09-18T05:58:59;15.35;;;9.90;;
77226;SDS011;66234;47.642;19.144;2023-09-18T06:02:02;13.43;;;10.05;;
77226;SDS011;66234;47.642;19.144;2023-09-18T06:05:05;15.07;;;9.68;;
77226;SDS011;66234;47.642;19.144;2023-09-18T06:08:08;16.50;;;10.17;;
77226;SDS011;66234;47.642;19.144;2023-09-18T06:11:11;16.00;;;9.47;;
77226;SDS011;66234;47.642;19.144;2023-09-18T06:14:14;16.45;;;9.65;;
77226;SDS011;66234;47.642;19.144;2023-09-18T06:17:17;15.27;;;8.82;;
77226;SDS011;66234;47.642;19.144;2023-09-18T06:20:20;15.43;;;9.35;;
77226;SDS011;66234;47.642;19.144;2023-09-18T06:23:24;14.47;;;9.47;;
77226;SDS011;66234;47.642;19.144;2023-09-18T06:26:26;14.10;;;9.13;;
77226;SDS011;66234;47.642;19.144;2023-09-18T06:29:30;14.70;;;9.40;;
77226;SDS011;66234;47.642;19.144;2023-09-18T06:32:34;12.52;;;9.05;;
77226;SDS011;66234;47.642;19.144;2023-09-18T06:35:37;13.45;;;9.57;;
77226;SDS011;66234;47.642;19.144;2023-09-18T06:38:40;14.07;;;9.20;;
77226;SDS011;66234;47.642;19.144;2023-09-18T06:41:43;14.33;;;9.50;;
77226;SDS011;66234;47.642;19.144;2023-09-18T06:44:48;15.30;;;8.93;;
77226;SDS011;66234;47.642;19.144;2023-09-18T06:47:51;16.25;;;9.63;;
77226;SDS011;66234;47.642;19.144;2023-09-18T06:50:55;12.52;;;8.95;;
77226;SDS011;66234;47.642;19.144;2023-09-18T06:53:58;16.90;;;9.87;;
77226;SDS011;66234;47.642;19.144;2023-09-18T06:57:00;15.17;;;8.87;;
77226;SDS011;66234;47.642;19.144;2023-09-18T07:00:03;13.25;;;9.07;;
77226;SDS011;66234;47.642;19.144;2023-09-18T07:03:07;15.88;;;9.65;;
77226;SDS011;66234;47.642;19.144;2023-09-18T07:06:14;13.60;;;8.68;;
77226;SDS011;66234;47.642;19.144;2023-09-18T07:09:24;12.67;;;8.30;;
77226;SDS011;66234;47.642;19.144;2023-09-18T07:12:28;16.13;;;8.70;;
77226;SDS011;66234;47.642;19.144;2023-09-18T07:15:30;12.40;;;9.20;;
77226;SDS011;66234;47.642;19.144;2023-09-18T07:18:33;13.98;;;8.73;;
77226;SDS011;66234;47.642;19.144;2023-09-18T07:21:36;12.88;;;8.18;;
77226;SDS011;66234;47.642;19.144;2023-09-18T07:24:40;11.43;;;8.73;;
77226;SDS011;66234;47.642;19.144;2023-09-18T07:27:45;11.27;;;8.43;;
77226;SDS011;66234;47.642;19.144;2023-09-18T07:30:47;12.55;;;9.60;;
77226;SDS011;66234;47.642;19.144;2023-09-18T07:33:50;11.50;;;8.13;;
77226;SDS011;66234;47.642;19.144;2023-09-18T07:36:53;10.60;;;8.60;;
77226;SDS011;66234;47.642;19.144;2023-09-18T07:39:57;10.93;;;8.53;;
77226;SDS011;66234;47.642;19.144;2023-09-18T07:43:00;13.77;;;8.90;;
77226;SDS011;66234;47.642;19.144;2023-09-18T07:46:03;12.95;;;8.63;;
77226;SDS011;66234;47.642;19.144;2023-09-18T07:49:05;19.23;;;9.10;;
77226;SDS011;66234;47.642;19.144;2023-09-18T07:52:08;13.27;;;8.50;;
77226;SDS011;66234;47.642;19.144;2023-09-18T07:55:10;15.60;;;9.17;;
77226;SDS011;66234;47.642;19.144;2023-09-18T07:58:13;18.23;;;9.13;;
77226;SDS011;66234;47.642;19.144;2023-09-18T08:01:16;14.82;;;8.93;;
77226;SDS011;66234;47.642;19.144;2023-09-18T08:04:19;14.82;;;8.55;;
77226;SDS011;66234;47.642;19.144;2023-09-18T08:07:22;12.15;;;8.55;;
77226;SDS011;66234;47.642;19.144;2023-09-18T08:10:25;10.33;;;8.50;;
77226;SDS011;66234;47.642;19.144;2023-09-18T08:13:28;13.43;;;8.63;;
77226;SDS011;66234;47.642;19.144;2023-09-18T08:16:31;11.48;;;8.93;;
77226;SDS011;66234;47.642;19.144;2023-09-18T08:19:34;12.02;;;8.45;;
77226;SDS011;66234;47.642;19.144;2023-09-18T08:22:38;11.82;;;8.45;;
77226;SDS011;66234;47.642;19.144;2023-09-18T08:25:42;13.00;;;8.90;;
77226;SDS011;66234;47.642;19.144;2023-09-18T08:28:45;12.70;;;8.70;;
77226;SDS011;66234;47.642;19.144;2023-09-18T08:31:47;11.43;;;8.85;;
77226;SDS011;66234;47.642;19.144;2023-09-18T08:34:50;10.60;;;8.30;;
77226;SDS011;66234;47.642;19.144;2023-09-18T08:37:53;11.82;;;8.95;;
77226;SDS011;66234;47.642;19.144;2023-09-18T08:40:57;11.87;;;8.73;;
77226;SDS011;66234;47.642;19.144;2023-09-18T08:44:01;11.07;;;8.30;;
77226;SDS011;66234;47.642;19.144;2023-09-18T08:47:06;12.38;;;8.43;;
77226;SDS011;66234;47.642;19.144;2023-09-18T08:50:10;17.98;;;9.05;;
77226;SDS011;66234;47.642;19.144;2023-09-18T08:53:14;21.80;;;8.30;;
77226;SDS011;66234;47.642;19.144;2023-09-18T08:56:18;17.27;;;8.70;;
77226;SDS011;66234;47.642;19.144;2023-09-18T08:59:23;11.33;;;8.23;;
77226;SDS011;66234;47.642;19.144;2023-09-18T09:02:27;11.52;;;8.45;;
77226;SDS011;66234;47.642;19.144;2023-09-18T09:05:31;14.18;;;8.45;;
77226;SDS011;66234;47.642;19.144;2023-09-18T09:08:34;10.20;;;7.90;;
77226;SDS011;66234;47.642;19.144;2023-09-18T09:11:36;10.83;;;8.40;;
77226;SDS011;66234;47.642;19.144;2023-09-18T09:14:39;13.10;;;7.93;;
77226;SDS011;66234;47.642;19.144;2023-09-18T09:17:42;14.95;;;8.35;;
77226;SDS011;66234;47.642;19.144;2023-09-18T09:20:53;14.40;;;7.85;;
77226;SDS011;66234;47.642;19.144;2023-09-18T09:23:56;13.48;;;8.02;;
77226;SDS011;66234;47.642;19.144;2023-09-18T09:26:59;11.17;;;7.90;;
77226;SDS011;66234;47.642;19.144;2023-09-18T09:30:02;12.20;;;8.73;;
77226;SDS011;66234;47.642;19.144;2023-09-18T09:33:07;13.77;;;8.60;;
77226;SDS011;66234;47.642;19.144;2023-09-18T09:36:10;9.57;;;8.00;;
77226;SDS011;66234;47.642;19.144;2023-09-18T09:39:13;12.27;;;8.45;;
77226;SDS011;66234;47.642;19.144;2023-09-18T09:42:20;10.07;;;7.87;;
77226;SDS011;66234;47.642;19.144;2023-09-18T09:45:31;12.13;;;8.07;;
77226;SDS011;66234;47.642;19.144;2023-09-18T09:48:38;13.18;;;7.97;;
77226;SDS011;66234;47.642;19.144;2023-09-18T09:51:42;10.82;;;8.35;;
77226;SDS011;66234;47.642;19.144;2023-09-18T09:54:49;10.40;;;8.30;;
77226;SDS011;66234;47.642;19.144;2023-09-18T09:57:53;9.05;;;7.95;;
77226;SDS011;66234;47.642;19.144;2023-09-18T10:01:02;12.30;;;7.77;;
77226;SDS011;66234;47.642;19.144;2023-09-18T10:07:13;10.32;;;8.38;;
77226;SDS011;66234;47.642;19.144;2023-09-18T10:10:20;9.32;;;8.38;;
77226;SDS011;66234;47.642;19.144;2023-09-18T10:13:26;13.67;;;8.53;;
77226;SDS011;66234;47.642;19.144;2023-09-18T10:16:33;9.97;;;7.70;;
77226;SDS011;66234;47.642;19.144;2023-09-18T10:19:47;12.90;;;8.25;;
77226;SDS011;66234;47.642;19.144;2023-09-18T10:22:56;11.18;;;7.90;;
77226;SDS011;66234;47.642;19.144;2023-09-18T10:26:04;13.02;;;8.18;;
77226;SDS011;66234;47.642;19.144;2023-09-18T10:29:07;11.23;;;7.90;;
77226;SDS011;66234;47.642;19.144;2023-09-18T10:32:13;15.23;;;8.40;;
77226;SDS011;66234;47.642;19.144;2023-09-18T10:35:17;26.42;;;9.80;;
77226;SDS011;66234;47.642;19.144;2023-09-18T10:38:22;9.95;;;7.40;;
77226;SDS011;66234;47.642;19.144;2023-09-18T10:41:27;13.07;;;7.95;;
77226;SDS011;66234;47.642;19.144;2023-09-18T10:44:31;9.98;;;8.23;;
77226;SDS011;66234;47.642;19.144;2023-09-18T10:47:34;8.10;;;7.30;;
77226;SDS011;66234;47.642;19.144;2023-09-18T10:50:37;13.90;;;7.20;;
77226;SDS011;66234;47.642;19.144;2023-09-18T10:53:42;16.35;;;7.45;;
77226;SDS011;66234;47.642;19.144;2023-09-18T10:56:45;10.07;;;7.88;;
77226;SDS011;66234;47.642;19.144;2023-09-18T10:59:47;13.80;;;8.15;;
77226;SDS011;66234;47.642;19.144;2023-09-18T11:02:53;15.87;;;7.73;;
77226;SDS011;66234;47.642;19.144;2023-09-18T11:06:11;9.18;;;8.15;;
77226;SDS011;66234;47.642;19.144;2023-09-18T11:09:19;17.55;;;7.95;;
77226;SDS011;66234;47.642;19.144;2023-09-18T11:12:44;15.75;;;7.60;;
77226;SDS011;66234;47.642;19.144;2023-09-18T11:15:48;11.07;;;8.10;;
77226;SDS011;66234;47.642;19.144;2023-09-18T11:18:50;10.13;;;7.90;;
77226;SDS011;66234;47.642;19.144;2023-09-18T11:22:06;9.77;;;6.65;;
77226;SDS011;66234;47.642;19.144;2023-09-18T11:28:37;8.70;;;7.65;;
77226;SDS011;66234;47.642;19.144;2023-09-18T11:31:41;15.07;;;8.70;;
77226;SDS011;66234;47.642;19.144;2023-09-18T11:35:06;10.77;;;7.97;;
77226;SDS011;66234;47.642;19.144;2023-09-18T11:38:10;14.38;;;8.07;;
77226;SDS011;66234;47.642;19.144;2023-09-18T11:41:19;10.00;;;8.50;;
77226;SDS011;66234;47.642;19.144;2023-09-18T11:47:30;26.45;;;9.15;;
77226;SDS011;66234;47.642;19.144;2023-09-18T11:50:34;16.03;;;8.57;;
77226;SDS011;66234;47.642;19.144;2023-09-18T11:53:38;11.02;;;8.82;;
77226;SDS011;66234;47.642;19.144;2023-09-18T11:56:44;15.82;;;9.40;;
77226;SDS011;66234;47.642;19.144;2023-09-18T11:59:47;13.65;;;8.73;;
77226;SDS011;66234;47.642;19.144;2023-09-18T12:02:52;12.23;;;8.80;;
77226;SDS011;66234;47.642;19.144;2023-09-18T12:06:01;11.87;;;8.57;;
77226;SDS011;66234;47.642;19.144;2023-09-18T12:09:07;11.00;;;9.00;;
77226;SDS011;66234;47.642;19.144;2023-09-18T12:12:15;17.15;;;9.75;;
77226;SDS011;66234;47.642;19.144;2023-09-18T12:15:20;12.75;;;9.88;;
77226;SDS011;66234;47.642;19.144;2023-09-18T12:18:23;10.10;;;8.80;;
77226;SDS011;66234;47.642;19.144;2023-09-18T12:21:29;10.63;;;8.73;;
77226;SDS011;66234;47.642;19.144;2023-09-18T12:24:32;11.30;;;9.65;;
77226;SDS011;66234;47.642;19.144;2023-09-18T12:27:35;12.80;;;9.48;;
77226;SDS011;66234;47.642;19.144;2023-09-18T12:30:38;13.82;;;9.18;;
77226;SDS011;66234;47.642;19.144;2023-09-18T12:33:42;12.48;;;9.77;;
77226;SDS011;66234;47.642;19.144;2023-09-18T12:36:50;11.47;;;9.97;;
77226;SDS011;66234;47.642;19.144;2023-09-18T12:39:53;10.57;;;9.50;;
77226;SDS011;66234;47.642;19.144;2023-09-18T12:42:56;10.80;;;9.52;;
77226;SDS011;66234;47.642;19.144;2023-09-18T12:46:00;15.00;;;9.13;;
77226;SDS011;66234;47.642;19.144;2023-09-18T12:49:16;13.32;;;9.90;;
77226;SDS011;66234;47.642;19.144;2023-09-18T12:52:23;10.37;;;9.37;;
77226;SDS011;66234;47.642;19.144;2023-09-18T12:55:26;14.77;;;10.05;;
77226;SDS011;66234;47.642;19.144;2023-09-18T12:58:29;11.93;;;9.05;;
77226;SDS011;66234;47.642;19.144;2023-09-18T13:01:32;10.65;;;9.55;;
77226;SDS011;66234;47.642;19.144;2023-09-18T13:04:35;14.60;;;8.55;;
77226;SDS011;66234;47.642;19.144;2023-09-18T13:07:44;12.00;;;9.27;;
77226;SDS011;66234;47.642;19.144;2023-09-18T13:10:48;10.40;;;8.48;;
77226;SDS011;66234;47.642;19.144;2023-09-18T13:13:57;11.90;;;9.10;;
77226;SDS011;66234;47.642;19.144;2023-09-18T13:17:01;11.35;;;9.38;;
77226;SDS011;66234;47.642;19.144;2023-09-18T13:20:16;10.88;;;9.75;;
77226;SDS011;66234;47.642;19.144;2023-09-18T13:23:27;13.43;;;9.23;;
77226;SDS011;66234;47.642;19.144;2023-09-18T13:26:31;14.82;;;9.55;;
77226;SDS011;66234;47.642;19.144;2023-09-18T13:29:34;11.02;;;9.75;;
77226;SDS011;66234;47.642;19.144;2023-09-18T13:32:37;11.00;;;9.48;;
77226;SDS011;66234;47.642;19.144;2023-09-18T13:35:43;11.70;;;9.10;;
77226;SDS011;66234;47.642;19.144;2023-09-18T13:38:47;11.33;;;9.00;;
77226;SDS011;66234;47.642;19.144;2023-09-18T13:41:50;17.80;;;9.52;;
77226;SDS011;66234;47.642;19.144;2023-09-18T13:44:53;14.18;;;9.10;;
77226;SDS011;66234;47.642;19.144;2023-09-18T13:47:56;11.23;;;8.73;;
77226;SDS011;66234;47.642;19.144;2023-09-18T13:50:59;10.02;;;9.02;;
77226;SDS011;66234;47.642;19.144;2023-09-18T13:54:02;10.23;;;8.93;;
77226;SDS011;66234;47.642;19.144;2023-09-18T13:57:06;10.70;;;9.05;;
77226;SDS011;66234;47.642;19.144;2023-09-18T14:00:09;12.00;;;8.93;;
77226;SDS011;66234;47.642;19.144;2023-09-18T14:03:14;10.70;;;9.60;;
77226;SDS011;66234;47.642;19.144;2023-09-18T14:06:19;9.98;;;9.00;;
77226;SDS011;66234;47.642;19.144;2023-09-18T14:09:22;14.57;;;9.30;;
77226;SDS011;66234;47.642;19.144;2023-09-18T14:12:24;13.23;;;9.43;;
77226;SDS011;66234;47.642;19.144;2023-09-18T14:15:27;11.95;;;8.93;;
77226;SDS011;66234;47.642;19.144;2023-09-18T14:18:31;10.43;;;9.25;;
77226;SDS011;66234;47.642;19.144;2023-09-18T14:21:34;11.10;;;8.90;;
77226;SDS011;66234;47.642;19.144;2023-09-18T14:24:38;9.83;;;8.83;;
77226;SDS011;66234;47.642;19.144;2023-09-18T14:27:41;10.48;;;9.02;;
77226;SDS011;66234;47.642;19.144;2023-09-18T14:30:44;10.90;;;9.00;;
77226;SDS011;66234;47.642;19.144;2023-09-18T14:33:47;10.48;;;9.00;;
77226;SDS011;66234;47.642;19.144;2023-09-18T14:36:49;13.13;;;9.40;;
77226;SDS011;66234;47.642;19.144;2023-09-18T14:39:52;9.80;;;8.60;;
77226;SDS011;66234;47.642;19.144;2023-09-18T14:42:54;10.25;;;8.80;;
77226;SDS011;66234;47.642;19.144;2023-09-18T14:45:57;13.13;;;9.13;;
77226;SDS011;66234;47.642;19.144;2023-09-18T14:49:00;8.45;;;7.43;;
77226;SDS011;66234;47.642;19.144;2023-09-18T14:52:03;9.20;;;8.30;;
77226;SDS011;66234;47.642;19.144;2023-09-18T14:55:06;10.90;;;8.97;;
77226;SDS011;66234;47.642;19.144;2023-09-18T14:58:09;11.93;;;8.45;;
77226;SDS011;66234;47.642;19.144;2023-09-18T15:01:12;11.07;;;9.18;;
77226;SDS011;66234;47.642;19.144;2023-09-18T15:04:17;11.77;;;8.77;;
77226;SDS011;66234;47.642;19.144;2023-09-18T15:07:19;12.98;;;9.20;;
77226;SDS011;66234;47.642;19.144;2023-09-18T15:10:22;9.80;;;8.43;;
77226;SDS011;66234;47.642;19.144;2023-09-18T15:13:25;14.10;;;8.30;;
77226;SDS011;66234;47.642;19.144;2023-09-18T15:16:27;11.27;;;8.63;;
77226;SDS011;66234;47.642;19.144;2023-09-18T15:19:32;16.30;;;8.45;;
77226;SDS011;66234;47.642;19.144;2023-09-18T15:22:35;9.90;;;8.38;;
77226;SDS011;66234;47.642;19.144;2023-09-18T15:25:37;12.43;;;8.80;;
77226;SDS011;66234;47.642;19.144;2023-09-18T15:28:40;10.63;;;8.52;;
77226;SDS011;66234;47.642;19.144;2023-09-18T15:31:43;16.13;;;8.73;;
77226;SDS011;66234;47.642;19.144;2023-09-18T15:34:46;11.30;;;8.48;;
77226;SDS011;66234;47.642;19.144;2023-09-18T15:37:50;11.73;;;8.20;;
77226;SDS011;66234;47.642;19.144;2023-09-18T15:40:54;10.07;;;8.30;;
77226;SDS011;66234;47.642;19.144;2023-09-18T15:43:56;8.65;;;7.75;;
77226;SDS011;66234;47.642;19.144;2023-09-18T15:46:59;10.13;;;8.68;;
77226;SDS011;66234;47.642;19.144;2023-09-18T15:50:01;11.07;;;8.75;;
77226;SDS011;66234;47.642;19.144;2023-09-18T15:53:05;10.50;;;8.40;;
77226;SDS011;66234;47.642;19.144;2023-09-18T15:56:07;12.10;;;9.40;;
77226;SDS011;66234;47.642;19.144;2023-09-18T15:59:10;12.85;;;8.57;;
77226;SDS011;66234;47.642;19.144;2023-09-18T16:02:14;13.50;;;9.13;;
77226;SDS011;66234;47.642;19.144;2023-09-18T16:05:16;13.70;;;8.45;;
77226;SDS011;66234;47.642;19.144;2023-09-18T16:08:21;14.25;;;8.65;;
77226;SDS011;66234;47.642;19.144;2023-09-18T16:11:23;11.97;;;9.13;;
77226;SDS011;66234;47.642;19.144;2023-09-18T16:14:26;11.02;;;8.02;;
77226;SDS011;66234;47.642;19.144;2023-09-18T16:17:29;12.75;;;8.95;;
77226;SDS011;66234;47.642;19.144;2023-09-18T16:20:31;10.50;;;8.30;;
77226;SDS011;66234;47.642;19.144;2023-09-18T16:23:35;12.38;;;8.20;;
77226;SDS011;66234;47.642;19.144;2023-09-18T16:26:38;11.93;;;8.57;;
77226;SDS011;66234;47.642;19.144;2023-09-18T16:29:41;12.07;;;8.60;;
77226;SDS011;66234;47.642;19.144;2023-09-18T16:32:43;10.35;;;8.63;;
77226;SDS011;66234;47.642;19.144;2023-09-18T16:35:46;10.98;;;8.15;;
77226;SDS011;66234;47.642;19.144;2023-09-18T16:38:49;13.25;;;8.40;;
77226;SDS011;66234;47.642;19.144;2023-09-18T16:41:52;14.40;;;8.27;;
77226;SDS011;66234;47.642;19.144;2023-09-18T16:44:55;13.05;;;8.80;;
77226;SDS011;66234;47.642;19.144;2023-09-18T16:47:58;14.68;;;8.90;;
77226;SDS011;66234;47.642;19.144;2023-09-18T16:51:00;13.30;;;9.27;;
77226;SDS011;66234;47.642;19.144;2023-09-18T16:54:03;10.40;;;9.17;;
77226;SDS011;66234;47.642;19.144;2023-09-18T16:57:06;11.70;;;8.73;;
77226;SDS011;66234;47.642;19.144;2023-09-18T17:00:09;13.73;;;8.70;;
77226;SDS011;66234;47.642;19.144;2023-09-18T17:03:12;14.25;;;8.98;;
77226;SDS011;66234;47.642;19.144;2023-09-18T17:06:16;14.38;;;9.05;;
77226;SDS011;66234;47.642;19.144;2023-09-18T17:09:20;12.13;;;10.00;;
77226;SDS011;66234;47.642;19.144;2023-09-18T17:12:22;13.57;;;7.93;;
77226;SDS011;66234;47.642;19.144;2023-09-18T17:15:25;13.05;;;8.32;;
77226;SDS011;66234;47.642;19.144;2023-09-18T17:18:31;11.45;;;7.65;;
77226;SDS011;66234;47.642;19.144;2023-09-18T17:21:34;16.52;;;8.88;;
77226;SDS011;66234;47.642;19.144;2023-09-18T17:24:36;10.97;;;8.00;;
77226;SDS011;66234;47.642;19.144;2023-09-18T17:27:40;10.57;;;8.03;;
77226;SDS011;66234;47.642;19.144;2023-09-18T17:30:42;14.75;;;8.15;;
77226;SDS011;66234;47.642;19.144;2023-09-18T17:33:45;18.08;;;8.27;;
77226;SDS011;66234;47.642;19.144;2023-09-18T17:36:48;10.30;;;8.68;;
77226;SDS011;66234;47.642;19.144;2023-09-18T17:39:52;10.83;;;8.00;;
77226;SDS011;66234;47.642;19.144;2023-09-18T17:42:55;13.27;;;8.10;;
77226;SDS011;66234;47.642;19.144;2023-09-18T17:46:00;15.07;;;7.97;;
77226;SDS011;66234;47.642;19.144;2023-09-18T17:49:02;9.90;;;6.65;;
77226;SDS011;66234;47.642;19.144;2023-09-18T17:52:05;11.40;;;7.60;;
77226;SDS011;66234;47.642;19.144;2023-09-18T17:55:11;15.17;;;7.43;;
77226;SDS011;66234;47.642;19.144;2023-09-18T17:58:14;10.53;;;7.40;;
77226;SDS011;66234;47.642;19.144;2023-09-18T18:01:20;9.75;;;7.18;;
77226;SDS011;66234;47.642;19.144;2023-09-18T18:04:23;9.45;;;7.32;;
77226;SDS011;66234;47.642;19.144;2023-09-18T18:07:26;9.05;;;6.90;;